Salavat, Russia
Current Conditions -  °F | °C
As of 5:00 PM on Thursday 29 Jan 2015 (Local Time) from UWUU Reporting Station
Clear Clear  
Wind Chill: -7°   Ceiling: Unl
Heat Index:   Visibility: 6mi
Dew Point: -2°   Wind: 7mph
Humidity: 72%   Direction: 190°S
Pressure: 30.27"   Gusts: NA
Location:  53.37°N, 55.92°E
Report Text: UWUU 291200Z 19003MPS 150V300 CAVOK M15/M19 Q1025 140///60NOSIG RMK QFE758/1011
Loading
Personal Weather Stations






























Interactive Weather Map New forecast layout! Learn more

10-Day Weather Forecast

Advertisements
Track Severe Weather on mobile